Time;durP1;ratioP1;P1;durP2;ratioP2;P2;SDS_P1;SDS_P2;PMS_P1;PMS_P2;Temp;Humidity;BMP_temperature;BMP_pressure;BME280_temperature;BME280_humidity;BME280_pressure;Samples;Min_cycle;Max_cycle;Signal;HPM_P1;HPM_P2
2021/07/01 00:00:30;;;;;;;42.42;20.30;;;;;;;;;;5072935;28;20049;-66
2021/07/01 00:03:16;;;;;;;37.42;18.08;;;;;;;;;;5072370;28;20049;-65
2021/07/01 00:06:02;;;;;;;36.13;18.08;;;;;;;;;;5072703;28;20525;-65
2021/07/01 00:08:49;;;;;;;41.00;18.70;;;;;;;;;;5072378;28;20041;-65
2021/07/01 00:11:34;;;;;;;35.50;17.98;;;;;;;;;;5072633;28;20087;-65
2021/07/01 00:14:20;;;;;;;45.75;18.70;;;;;;;;;;5070181;28;20372;-66
2021/07/01 00:17:05;;;;;;;35.40;18.13;;;;;;;;;;5052830;28;20053;-65
2021/07/01 00:19:51;;;;;;;44.88;18.02;;;;;;;;;;5052312;28;20122;-65
2021/07/01 00:22:37;;;;;;;41.97;19.65;;;;;;;;;;5063197;28;20040;-66
2021/07/01 00:25:23;;;;;;;43.70;18.42;;;;;;;;;;5072389;28;20045;-66
2021/07/01 00:28:08;;;;;;;44.38;19.15;;;;;;;;;;5071744;28;20052;-66
2021/07/01 00:30:53;;;;;;;41.15;18.98;;;;;;;;;;5069022;28;20040;-67
2021/07/01 00:33:40;;;;;;;45.20;18.13;;;;;;;;;;5072293;28;20048;-65
2021/07/01 00:36:25;;;;;;;40.20;18.35;;;;;;;;;;5072534;28;20135;-65
2021/07/01 00:39:11;;;;;;;37.67;18.13;;;;;;;;;;5072518;28;20040;-66
2021/07/01 00:41:56;;;;;;;32.58;18.83;;;;;;;;;;5071745;28;20068;-66
2021/07/01 00:44:41;;;;;;;48.88;20.73;;;;;;;;;;5070924;28;20050;-66
2021/07/01 00:47:27;;;;;;;39.72;18.50;;;;;;;;;;5070328;28;20514;-67
2021/07/01 00:50:13;;;;;;;40.95;16.95;;;;;;;;;;5070018;28;20057;-66
2021/07/01 00:52:59;;;;;;;39.30;19.38;;;;;;;;;;5072612;28;20130;-66
2021/07/01 00:55:44;;;;;;;38.45;19.85;;;;;;;;;;5071381;28;20403;-65
2021/07/01 00:58:29;;;;;;;37.88;17.23;;;;;;;;;;5070931;28;20498;-65
2021/07/01 01:01:15;;;;;;;38.47;18.02;;;;;;;;;;5054247;28;20040;-66
2021/07/01 01:04:01;;;;;;;38.75;17.15;;;;;;;;;;5071013;28;20052;-65
2021/07/01 01:06:47;;;;;;;35.55;18.50;;;;;;;;;;5070899;28;20059;-66
2021/07/01 01:09:32;;;;;;;48.25;18.98;;;;;;;;;;5069854;28;20040;-66
2021/07/01 01:12:18;;;;;;;45.13;18.38;;;;;;;;;;5071035;28;20049;-66
2021/07/01 01:15:06;;;;;;;41.78;18.27;;;;;;;;;;5070118;28;20041;-65
2021/07/01 01:17:52;;;;;;;43.70;17.92;;;;;;;;;;5070940;28;20055;-66
2021/07/01 01:20:37;;;;;;;46.22;19.35;;;;;;;;;;5070750;28;20194;-65
2021/07/01 01:23:23;;;;;;;31.75;18.73;;;;;;;;;;5070323;28;20045;-65
2021/07/01 01:26:08;;;;;;;42.85;19.15;;;;;;;;;;5070695;28;20040;-65
2021/07/01 01:29:05;;;;;;;45.40;18.35;;;;;;;;;;5071019;28;20651;-65
2021/07/01 01:31:51;;;;;;;41.95;18.58;;;;;;;;;;5070737;28;20048;-65
2021/07/01 01:34:36;;;;;;;42.05;17.65;;;;;;;;;;5073963;28;20513;-65
2021/07/01 01:37:22;;;;;;;42.28;17.88;;;;;;;;;;5074405;28;20490;-66
2021/07/01 01:40:08;;;;;;;52.88;18.13;;;;;;;;;;5075334;28;20183;-65
2021/07/01 01:42:53;;;;;;;35.50;16.45;;;;;;;;;;5075132;28;20041;-65
2021/07/01 01:45:38;;;;;;;36.80;17.52;;;;;;;;;;5073688;28;20475;-66
2021/07/01 01:48:24;;;;;;;36.33;17.27;;;;;;;;;;5075169;28;20555;-65
2021/07/01 01:51:09;;;;;;;35.22;15.85;;;;;;;;;;5075510;28;20087;-65
2021/07/01 01:53:55;;;;;;;45.88;16.65;;;;;;;;;;5074764;28;20121;-66
2021/07/01 01:56:46;;;;;;;38.97;16.63;;;;;;;;;;5074210;28;20052;-65
2021/07/01 01:59:41;;;;;;;32.78;17.38;;;;;;;;;;5073462;28;20055;-66
2021/07/01 02:02:45;;;;;;;44.75;18.33;;;;;;;;;;5075244;28;20105;-66
2021/07/01 02:05:51;;;;;;;42.08;18.50;;;;;;;;;;5072910;28;20048;-65
2021/07/01 02:08:38;;;;;;;40.60;18.88;;;;;;;;;;5075225;28;20062;-66
2021/07/01 02:11:24;;;;;;;48.80;19.60;;;;;;;;;;5072357;28;20155;-65
2021/07/01 02:14:09;;;;;;;48.95;19.25;;;;;;;;;;5075030;28;20051;-66
2021/07/01 02:17:21;;;;;;;37.92;18.20;;;;;;;;;;5073813;28;20498;-66
2021/07/01 02:20:07;;;;;;;44.72;19.73;;;;;;;;;;5073413;28;20494;-66
2021/07/01 02:22:52;;;;;;;42.22;18.67;;;;;;;;;;5074907;28;20127;-66
2021/07/01 02:25:45;;;;;;;40.15;19.08;;;;;;;;;;5072907;28;20047;-66
2021/07/01 02:28:34;;;;;;;46.65;20.27;;;;;;;;;;5074888;28;20040;-66
2021/07/01 02:31:39;;;;;;;41.35;18.83;;;;;;;;;;5074479;28;20054;-66
2021/07/01 02:34:24;;;;;;;46.60;21.02;;;;;;;;;;5053565;28;20043;-66
2021/07/01 02:37:38;;;;;;;45.15;20.77;;;;;;;;;;5054466;28;20132;-65
2021/07/01 02:40:28;;;;;;;41.40;20.38;;;;;;;;;;5068027;28;20048;-65
2021/07/01 02:43:39;;;;;;;44.58;19.88;;;;;;;;;;5074187;28;20143;-66
2021/07/01 02:47:00;;;;;;;49.47;21.27;;;;;;;;;;5071532;28;20509;-65
2021/07/01 02:49:51;;;;;;;44.78;19.77;;;;;;;;;;5073895;28;20048;-65
2021/07/01 02:52:42;;;;;;;46.08;20.50;;;;;;;;;;5071314;28;20395;-65
2021/07/01 02:55:27;;;;;;;42.33;20.10;;;;;;;;;;5073050;28;20040;-65
2021/07/01 02:58:12;;;;;;;45.05;20.80;;;;;;;;;;5073489;28;20490;-65
2021/07/01 03:01:17;;;;;;;42.22;18.30;;;;;;;;;;5073087;28;20052;-66
2021/07/01 03:04:02;;;;;;;55.58;21.80;;;;;;;;;;5072190;28;20052;-66
2021/07/01 03:06:47;;;;;;;48.17;20.25;;;;;;;;;;5073145;28;20053;-65
2021/07/01 03:09:33;;;;;;;48.70;20.65;;;;;;;;;;5072281;28;20059;-65
2021/07/01 03:12:19;;;;;;;40.83;19.92;;;;;;;;;;5073058;28;20407;-65
2021/07/01 03:15:05;;;;;;;43.90;20.17;;;;;;;;;;5072996;28;20051;-65
2021/07/01 03:17:51;;;;;;;44.67;21.08;;;;;;;;;;5073252;28;20045;-65
2021/07/01 03:20:39;;;;;;;47.75;20.55;;;;;;;;;;5071801;28;20040;-66
2021/07/01 03:23:44;;;;;;;43.53;20.02;;;;;;;;;;5052866;28;20076;-65
2021/07/01 03:26:30;;;;;;;40.17;20.48;;;;;;;;;;5052214;28;20072;-66
2021/07/01 03:29:16;;;;;;;45.55;20.52;;;;;;;;;;5067018;28;20522;-66
2021/07/01 03:32:02;;;;;;;41.92;19.90;;;;;;;;;;5073403;28;20491;-65
2021/07/01 03:34:49;;;;;;;46.70;20.98;;;;;;;;;;5073402;28;20410;-66
2021/07/01 03:37:42;;;;;;;48.75;20.30;;;;;;;;;;5072396;28;20123;-65
2021/07/01 03:40:41;;;;;;;43.92;20.02;;;;;;;;;;5072209;28;20053;-65
2021/07/01 03:43:27;;;;;;;44.13;19.88;;;;;;;;;;5071422;28;20040;-66
2021/07/01 03:46:16;;;;;;;42.90;20.73;;;;;;;;;;5074685;28;20705;-66
2021/07/01 03:49:03;;;;;;;51.60;21.05;;;;;;;;;;5071928;28;20051;-66
2021/07/01 03:52:05;;;;;;;46.38;20.83;;;;;;;;;;5072279;28;20048;-66
2021/07/01 03:54:51;;;;;;;43.03;20.65;;;;;;;;;;5072010;28;20479;-66
2021/07/01 03:57:37;;;;;;;50.10;21.02;;;;;;;;;;5070903;28;20047;-66
2021/07/01 04:00:22;;;;;;;40.95;20.42;;;;;;;;;;5069905;28;20556;-65
2021/07/01 04:03:16;;;;;;;43.83;21.75;;;;;;;;;;5071399;28;20528;-65
2021/07/01 04:06:17;;;;;;;40.05;20.10;;;;;;;;;;5070822;28;20044;-66
2021/07/01 04:09:02;;;;;;;41.95;21.75;;;;;;;;;;5072878;28;20048;-66
2021/07/01 04:11:48;;;;;;;43.05;20.23;;;;;;;;;;5070538;28;20044;-66
2021/07/01 04:14:33;;;;;;;44.33;20.63;;;;;;;;;;5071414;28;20070;-66
2021/07/01 04:17:38;;;;;;;44.90;21.90;;;;;;;;;;5060165;28;20418;-65
2021/07/01 04:20:42;;;;;;;47.15;21.98;;;;;;;;;;5072087;28;20040;-65
2021/07/01 04:23:46;;;;;;;50.85;21.67;;;;;;;;;;5071906;28;20041;-66
2021/07/01 04:26:45;;;;;;;47.83;22.23;;;;;;;;;;5072340;28;20044;-65
2021/07/01 04:29:37;;;;;;;54.95;23.23;;;;;;;;;;5071076;28;20553;-65
2021/07/01 04:32:22;;;;;;;55.28;22.45;;;;;;;;;;5070714;28;20055;-66
2021/07/01 04:35:11;;;;;;;46.17;22.00;;;;;;;;;;5071197;28;20707;-67
2021/07/01 04:37:57;;;;;;;46.75;22.08;;;;;;;;;;5056858;28;20111;-67
2021/07/01 04:40:43;;;;;;;49.72;22.88;;;;;;;;;;5056338;28;20041;-66
2021/07/01 04:43:28;;;;;;;51.72;22.85;;;;;;;;;;5071870;28;20052;-65
2021/07/01 04:46:15;;;;;;;48.42;22.50;;;;;;;;;;5065208;28;20115;-65
2021/07/01 04:49:04;;;;;;;52.83;22.92;;;;;;;;;;5061969;28;20055;-65
2021/07/01 04:51:53;;;;;;;48.17;22.00;;;;;;;;;;5069983;28;20040;-65
2021/07/01 04:54:57;;;;;;;48.33;21.92;;;;;;;;;;5070943;28;20044;-65
2021/07/01 04:58:01;;;;;;;46.55;22.17;;;;;;;;;;5069543;28;20132;-65
2021/07/01 05:00:48;;;;;;;48.38;22.35;;;;;;;;;;5070294;28;20044;-65
2021/07/01 05:03:52;;;;;;;48.55;24.10;;;;;;;;;;5052042;28;20048;-66
2021/07/01 05:06:38;;;;;;;52.47;22.65;;;;;;;;;;5053162;28;20605;-65
2021/07/01 05:09:23;;;;;;;47.22;22.20;;;;;;;;;;5071753;28;20043;-65
2021/07/01 05:12:10;;;;;;;50.03;23.55;;;;;;;;;;5068991;28;20082;-65
2021/07/01 05:14:59;;;;;;;50.45;22.35;;;;;;;;;;5071102;28;20049;-65
2021/07/01 05:17:45;;;;;;;51.58;22.98;;;;;;;;;;5070882;28;20044;-65
2021/07/01 05:20:31;;;;;;;46.67;22.52;;;;;;;;;;5070893;28;20044;-65
2021/07/01 05:23:45;;;;;;;45.05;20.48;;;;;;;;;;5054756;28;20051;-65
2021/07/01 05:26:50;;;;;;;45.40;21.33;;;;;;;;;;5106463;22;20049;-63
2021/07/01 05:30:11;;;;;;;53.97;21.58;;;;;;;;;;4995378;28;20053;-63
2021/07/01 05:33:16;;;;;;;49.50;23.45;;;;;;;;;;5056050;28;20073;-63
2021/07/01 05:36:12;;;;;;;49.83;22.23;;;;;;;;;;5053281;28;20049;-63
2021/07/01 05:39:00;;;;;;;50.13;20.88;;;;;;;;;;5051970;28;20693;-63
2021/07/01 05:41:47;;;;;;;57.35;22.80;;;;;;;;;;5052118;28;20443;-63
2021/07/01 05:44:32;;;;;;;48.58;22.42;;;;;;;;;;5051485;28;20170;-63
2021/07/01 05:47:17;;;;;;;53.45;22.35;;;;;;;;;;5052481;28;20175;-63
2021/07/01 05:50:03;;;;;;;43.13;20.80;;;;;;;;;;5051083;28;20041;-63
2021/07/01 05:52:58;;;;;;;47.47;22.17;;;;;;;;;;5033709;28;20120;-63
2021/07/01 05:55:43;;;;;;;47.25;22.70;;;;;;;;;;5041750;28;20048;-63
2021/07/01 05:58:28;;;;;;;46.55;21.98;;;;;;;;;;5052559;28;20052;-63
2021/07/01 06:01:15;;;;;;;52.28;23.25;;;;;;;;;;5051590;28;20095;-63
2021/07/01 06:04:00;;;;;;;54.83;22.95;;;;;;;;;;5054510;28;20041;-64
2021/07/01 06:07:06;;;;;;;44.35;22.33;;;;;;;;;;5048390;28;20503;-63
2021/07/01 06:09:54;;;;;;;46.97;23.20;;;;;;;;;;5038533;28;20041;-63
2021/07/01 06:12:39;;;;;;;56.97;24.00;;;;;;;;;;5053093;28;20079;-63
2021/07/01 06:15:24;;;;;;;47.55;23.13;;;;;;;;;;5052568;28;20499;-64
2021/07/01 06:18:11;;;;;;;55.75;24.27;;;;;;;;;;5037903;28;20056;-63
2021/07/01 06:20:56;;;;;;;59.20;24.35;;;;;;;;;;5054402;28;20520;-62
2021/07/01 06:23:41;;;;;;;43.10;22.48;;;;;;;;;;5056024;28;20068;-63
2021/07/01 06:26:28;;;;;;;49.17;23.83;;;;;;;;;;5054514;28;20102;-63
2021/07/01 06:29:14;;;;;;;45.22;22.48;;;;;;;;;;5056965;28;20044;-63
2021/07/01 06:32:00;;;;;;;41.13;21.98;;;;;;;;;;5054840;28;20514;-63
2021/07/01 06:34:45;;;;;;;48.13;22.98;;;;;;;;;;5055838;28;20499;-64
2021/07/01 06:37:33;;;;;;;43.97;21.70;;;;;;;;;;5053783;28;20045;-63
2021/07/01 06:40:38;;;;;;;47.30;22.67;;;;;;;;;;5055373;28;20052;-63
2021/07/01 06:43:42;;;;;;;46.25;22.85;;;;;;;;;;5054766;28;20045;-62
2021/07/01 06:46:46;;;;;;;43.67;21.60;;;;;;;;;;5055050;28;20044;-63
2021/07/01 06:49:50;;;;;;;48.03;23.40;;;;;;;;;;5055264;28;20045;-63
2021/07/01 06:52:55;;;;;;;47.03;23.92;;;;;;;;;;5055016;28;20041;-63
2021/07/01 06:55:59;;;;;;;49.85;24.13;;;;;;;;;;5054185;28;20037;-63
2021/07/01 06:58:53;;;;;;;41.10;22.63;;;;;;;;;;5052612;28;20056;-66
2021/07/01 07:01:38;;;;;;;44.50;23.65;;;;;;;;;;5053929;28;20515;-66
2021/07/01 07:04:23;;;;;;;38.35;21.80;;;;;;;;;;5053294;28;20067;-66
2021/07/01 07:07:09;;;;;;;42.42;22.98;;;;;;;;;;5049162;28;20164;-66
2021/07/01 07:09:54;;;;;;;38.55;23.33;;;;;;;;;;5051962;28;20099;-66
2021/07/01 07:12:44;;;;;;;42.40;22.20;;;;;;;;;;5035795;28;20549;-66
2021/07/01 07:15:29;;;;;;;43.08;22.10;;;;;;;;;;5053516;28;20187;-66
2021/07/01 07:18:19;;;;;;;37.22;19.85;;;;;;;;;;5054013;28;20055;-66
2021/07/01 07:21:08;;;;;;;38.45;22.77;;;;;;;;;;5052775;28;20056;-66
2021/07/01 07:23:54;;;;;;;35.50;21.25;;;;;;;;;;5052186;28;20482;-66
2021/07/01 07:26:40;;;;;;;38.42;22.52;;;;;;;;;;5052766;28;20141;-66
2021/07/01 07:29:36;;;;;;;37.67;21.73;;;;;;;;;;5053637;28;20053;-66
2021/07/01 07:32:22;;;;;;;38.80;22.73;;;;;;;;;;5052748;28;20175;-66
2021/07/01 07:35:08;;;;;;;36.92;21.90;;;;;;;;;;5053623;28;20052;-66
2021/07/01 07:37:53;;;;;;;30.65;20.80;;;;;;;;;;5053440;28;20041;-66
2021/07/01 07:40:41;;;;;;;26.73;18.73;;;;;;;;;;5053119;28;20048;-66
2021/07/01 07:43:27;;;;;;;39.25;22.08;;;;;;;;;;5052758;28;20426;-66
2021/07/01 07:46:13;;;;;;;33.78;20.38;;;;;;;;;;5053310;28;20055;-66
2021/07/01 07:48:59;;;;;;;34.45;20.40;;;;;;;;;;5053267;28;20048;-66
2021/07/01 07:51:44;;;;;;;33.90;20.48;;;;;;;;;;5053266;28;20053;-66
2021/07/01 07:54:29;;;;;;;30.98;19.52;;;;;;;;;;5053100;28;20134;-66
2021/07/01 07:57:15;;;;;;;32.08;20.65;;;;;;;;;;5040870;28;20045;-66
2021/07/01 08:00:00;;;;;;;36.45;21.13;;;;;;;;;;5043344;28;20179;-66
2021/07/01 08:02:51;;;;;;;32.33;19.02;;;;;;;;;;5041019;28;20521;-66
2021/07/01 08:05:37;;;;;;;28.05;18.83;;;;;;;;;;5043155;28;20046;-66
2021/07/01 08:08:22;;;;;;;32.50;20.42;;;;;;;;;;5051851;28;20557;-66
2021/07/01 08:11:09;;;;;;;32.95;21.02;;;;;;;;;;5051688;28;20080;-66
2021/07/01 08:13:56;;;;;;;30.02;19.73;;;;;;;;;;5051431;28;20533;-66
2021/07/01 08:16:43;;;;;;;36.20;20.70;;;;;;;;;;5052878;28;20052;-66
2021/07/01 08:19:29;;;;;;;32.20;19.85;;;;;;;;;;5051667;28;20048;-66
2021/07/01 08:22:14;;;;;;;30.10;19.67;;;;;;;;;;5052629;28;20068;-66
2021/07/01 08:24:59;;;;;;;35.03;21.83;;;;;;;;;;5052004;28;20502;-66
2021/07/01 08:27:46;;;;;;;32.40;21.90;;;;;;;;;;5052330;28;20518;-66
2021/07/01 08:30:32;;;;;;;28.15;18.48;;;;;;;;;;5052174;28;20057;-66
2021/07/01 08:33:21;;;;;;;34.60;20.73;;;;;;;;;;5052416;28;20122;-66
2021/07/01 08:36:06;;;;;;;37.22;21.27;;;;;;;;;;5052256;28;20044;-66
2021/07/01 08:38:52;;;;;;;33.72;21.20;;;;;;;;;;5052273;28;20041;-66
2021/07/01 08:41:38;;;;;;;31.27;19.88;;;;;;;;;;5052310;28;20067;-66
2021/07/01 08:44:23;;;;;;;33.03;21.45;;;;;;;;;;5050309;28;20126;-66
2021/07/01 08:47:16;;;;;;;35.13;20.88;;;;;;;;;;5052191;28;20071;-66
2021/07/01 08:50:03;;;;;;;36.20;22.02;;;;;;;;;;5052089;28;20052;-66
2021/07/01 08:52:48;;;;;;;35.08;21.73;;;;;;;;;;5053407;28;20045;-66
2021/07/01 08:55:34;;;;;;;39.20;21.15;;;;;;;;;;5052433;28;20041;-66
2021/07/01 08:58:20;;;;;;;34.70;22.05;;;;;;;;;;5052294;28;20045;-66
2021/07/01 09:01:06;;;;;;;31.30;20.27;;;;;;;;;;5051023;28;20060;-66
2021/07/01 09:03:51;;;;;;;29.70;20.48;;;;;;;;;;5052506;28;20049;-66
2021/07/01 09:06:37;;;;;;;37.20;22.85;;;;;;;;;;5046454;28;20523;-66
2021/07/01 09:09:22;;;;;;;35.67;22.17;;;;;;;;;;5044030;28;20423;-66
2021/07/01 09:12:08;;;;;;;32.72;20.23;;;;;;;;;;5049428;28;20033;-66
2021/07/01 09:14:57;;;;;;;30.95;20.13;;;;;;;;;;5050079;28;20052;-66
2021/07/01 09:17:48;;;;;;;30.13;20.65;;;;;;;;;;5045510;28;20040;-66
2021/07/01 09:20:36;;;;;;;32.43;20.10;;;;;;;;;;5046477;28;20051;-65
2021/07/01 09:23:22;;;;;;;36.70;21.48;;;;;;;;;;5036232;28;20387;-66
2021/07/01 09:26:10;;;;;;;34.78;20.35;;;;;;;;;;5049675;28;20151;-66
2021/07/01 09:28:56;;;;;;;32.90;19.60;;;;;;;;;;5057348;28;20047;-66
2021/07/01 09:31:41;;;;;;;29.52;19.30;;;;;;;;;;5056133;28;20049;-66
2021/07/01 09:34:26;;;;;;;27.75;19.33;;;;;;;;;;5055080;28;20056;-66
2021/07/01 09:37:11;;;;;;;30.25;19.10;;;;;;;;;;5054131;28;20047;-66
2021/07/01 09:39:57;;;;;;;30.15;16.95;;;;;;;;;;5053271;28;20048;-66
2021/07/01 09:42:42;;;;;;;31.70;18.90;;;;;;;;;;5050579;28;20052;-66
2021/07/01 09:45:27;;;;;;;28.98;19.60;;;;;;;;;;5050871;28;20175;-66
2021/07/01 09:48:14;;;;;;;26.85;18.92;;;;;;;;;;5051556;28;20048;-66
2021/07/01 09:51:03;;;;;;;36.15;20.00;;;;;;;;;;5049462;28;20051;-66
2021/07/01 09:53:49;;;;;;;28.13;19.02;;;;;;;;;;5051324;28;20056;-66
2021/07/01 09:56:37;;;;;;;25.42;17.42;;;;;;;;;;5055381;28;20051;-66
2021/07/01 09:59:27;;;;;;;27.67;20.65;;;;;;;;;;5055022;28;20043;-66
2021/07/01 10:02:14;;;;;;;31.05;18.63;;;;;;;;;;5054748;28;20047;-66
2021/07/01 10:04:59;;;;;;;25.58;17.77;;;;;;;;;;5052357;28;20049;-66
2021/07/01 10:07:48;;;;;;;26.35;17.17;;;;;;;;;;5035062;28;20525;-66
2021/07/01 10:10:43;;;;;;;28.70;18.60;;;;;;;;;;5037604;28;20045;-66
2021/07/01 10:13:28;;;;;;;22.58;16.45;;;;;;;;;;5055167;28;20053;-66
2021/07/01 10:16:14;;;;;;;27.73;16.90;;;;;;;;;;5054699;28;20052;-66
2021/07/01 10:18:59;;;;;;;23.88;16.58;;;;;;;;;;5054872;28;20048;-66
2021/07/01 10:21:45;;;;;;;29.45;16.30;;;;;;;;;;5053715;28;20052;-66
2021/07/01 10:24:32;;;;;;;29.50;16.52;;;;;;;;;;5053746;28;20095;-66
2021/07/01 10:27:27;;;;;;;29.13;16.50;;;;;;;;;;5053569;28;20060;-66
2021/07/01 10:30:21;;;;;;;23.45;15.50;;;;;;;;;;5053530;28;20457;-66
2021/07/01 10:33:06;;;;;;;22.25;15.70;;;;;;;;;;5054614;28;20553;-66
2021/07/01 10:35:51;;;;;;;23.35;15.73;;;;;;;;;;5053638;28;20056;-66
2021/07/01 10:38:45;;;;;;;25.55;15.88;;;;;;;;;;5053476;28;20057;-66
2021/07/01 10:41:30;;;;;;;20.58;15.25;;;;;;;;;;5054244;28;20194;-66
2021/07/01 10:44:23;;;;;;;24.67;16.98;;;;;;;;;;5054380;28;20048;-66
2021/07/01 10:47:26;;;;;;;22.98;15.38;;;;;;;;;;5054234;28;20075;-63
2021/07/01 10:50:21;;;;;;;23.00;15.20;;;;;;;;;;5053092;28;20155;-63
2021/07/01 10:53:25;;;;;;;25.70;16.00;;;;;;;;;;5034516;28;20056;-63
2021/07/01 10:56:19;;;;;;;26.50;16.33;;;;;;;;;;5034334;28;20055;-63
2021/07/01 10:59:04;;;;;;;25.33;15.85;;;;;;;;;;5034137;28;20505;-63
2021/07/01 11:01:53;;;;;;;23.88;16.13;;;;;;;;;;5035504;28;20068;-62
2021/07/01 11:04:40;;;;;;;21.63;16.80;;;;;;;;;;5033091;28;20045;-63
2021/07/01 11:07:26;;;;;;;22.92;15.95;;;;;;;;;;5033032;28;20046;-63
2021/07/01 11:10:11;;;;;;;26.02;16.85;;;;;;;;;;5039877;28;20047;-63
2021/07/01 11:12:56;;;;;;;23.60;15.80;;;;;;;;;;5054072;28;20048;-64
2021/07/01 11:16:14;;;;;;;25.17;16.92;;;;;;;;;;5053123;28;20041;-62
2021/07/01 11:18:59;;;;;;;24.45;16.50;;;;;;;;;;5020539;28;20052;-63
2021/07/01 11:21:46;;;;;;;23.45;16.20;;;;;;;;;;5052329;28;20055;-63
2021/07/01 11:24:31;;;;;;;20.05;15.10;;;;;;;;;;5053822;28;20041;-63
2021/07/01 11:27:16;;;;;;;22.75;15.77;;;;;;;;;;5077682;22;20048;-65
2021/07/01 11:30:01;;;;;;;21.00;16.08;;;;;;;;;;5072537;28;20402;-66
2021/07/01 11:32:46;;;;;;;19.92;16.27;;;;;;;;;;5053785;28;20048;-66
2021/07/01 11:35:32;;;;;;;19.38;15.85;;;;;;;;;;5060701;28;20055;-66
2021/07/01 11:38:24;;;;;;;20.30;15.05;;;;;;;;;;5071808;28;20056;-66
2021/07/01 11:41:09;;;;;;;;;;;;;;;;;;5072833;28;20055;-66
2021/07/01 11:43:54;;;;;;;17.77;13.10;;;;;;;;;;5073402;28;19920;-66
2021/07/01 11:46:41;;;;;;;20.65;13.95;;;;;;;;;;5071540;28;20050;-66
2021/07/01 11:49:26;;;;;;;21.90;15.10;;;;;;;;;;5071740;28;20043;-66
2021/07/01 11:52:11;;;;;;;19.85;15.05;;;;;;;;;;5062979;28;20158;-66
2021/07/01 11:54:57;;;;;;;17.80;14.02;;;;;;;;;;5071872;28;20047;-66
2021/07/01 11:57:42;;;;;;;21.33;15.18;;;;;;;;;;5071011;28;20409;-66
2021/07/01 12:00:27;;;;;;;18.20;14.43;;;;;;;;;;5052436;28;20037;-66
2021/07/01 12:03:13;;;;;;;18.35;14.35;;;;;;;;;;5052095;28;20522;-66
2021/07/01 12:05:58;;;;;;;25.25;15.27;;;;;;;;;;5052549;28;20056;-66
2021/07/01 12:08:44;;;;;;;19.55;14.15;;;;;;;;;;5064175;28;20044;-66
2021/07/01 12:11:30;;;;;;;19.92;14.23;;;;;;;;;;5060945;28;20058;-66
2021/07/01 12:14:33;;;;;;;19.90;14.70;;;;;;;;;;5052765;28;20073;-66
2021/07/01 12:17:37;;;;;;;16.77;13.13;;;;;;;;;;5051377;28;20044;-66
2021/07/01 12:20:26;;;;;;;16.92;13.30;;;;;;;;;;5052391;28;20116;-66
2021/07/01 12:23:12;;;;;;;17.45;13.38;;;;;;;;;;5067158;28;20139;-66
2021/07/01 12:26:01;;;;;;;16.92;13.40;;;;;;;;;;5072319;28;20044;-66
2021/07/01 12:28:46;;;;;;;17.55;13.80;;;;;;;;;;5071530;28;20064;-66
2021/07/01 12:31:33;;;;;;;17.77;13.68;;;;;;;;;;5071265;28;20095;-66
2021/07/01 12:34:21;;;;;;;16.38;12.63;;;;;;;;;;5071920;28;20045;-66
2021/07/01 12:37:06;;;;;;;16.20;12.35;;;;;;;;;;5069256;28;20051;-66
2021/07/01 12:39:52;;;;;;;15.13;11.77;;;;;;;;;;5071046;28;20051;-66
2021/07/01 12:42:40;;;;;;;13.23;11.35;;;;;;;;;;5072175;28;20049;-66
2021/07/01 12:45:32;;;;;;;15.65;11.48;;;;;;;;;;5072171;28;20055;-66
2021/07/01 12:48:35;;;;;;;12.60;11.15;;;;;;;;;;5071769;28;20055;-66
2021/07/01 12:51:39;;;;;;;11.32;9.80;;;;;;;;;;5071104;28;20098;-66
2021/07/01 12:54:28;;;;;;;12.88;9.63;;;;;;;;;;5071982;28;20060;-66
2021/07/01 12:57:14;;;;;;;11.55;9.57;;;;;;;;;;5070688;28;20045;-65
2021/07/01 12:59:59;;;;;;;10.95;8.70;;;;;;;;;;5065504;28;20078;-66
2021/07/01 13:02:55;;;;;;;10.48;8.88;;;;;;;;;;5062802;28;20043;-66
2021/07/01 13:05:41;;;;;;;10.50;8.85;;;;;;;;;;5060791;28;20154;-66
2021/07/01 13:08:39;;;;;;;9.13;7.78;;;;;;;;;;5059629;28;20414;-65
2021/07/01 13:11:24;;;;;;;12.05;9.30;;;;;;;;;;5051439;28;20491;-65
2021/07/01 13:14:10;;;;;;;9.35;8.32;;;;;;;;;;5056794;28;20677;-66
2021/07/01 13:17:05;;;;;;;13.75;8.70;;;;;;;;;;5071770;28;20047;-65
2021/07/01 13:19:54;;;;;;;10.10;8.90;;;;;;;;;;5071611;28;20125;-66
2021/07/01 13:22:40;;;;;;;11.00;9.40;;;;;;;;;;5071052;28;20086;-66
2021/07/01 13:25:26;;;;;;;13.02;9.52;;;;;;;;;;5071976;28;20052;-66
2021/07/01 13:28:11;;;;;;;11.95;8.20;;;;;;;;;;5070821;28;20044;-65
2021/07/01 13:30:57;;;;;;;13.70;8.75;;;;;;;;;;5074697;28;20406;-67
2021/07/01 13:33:42;;;;;;;12.68;8.30;;;;;;;;;;5075015;28;20070;-66
2021/07/01 13:36:30;;;;;;;10.80;8.48;;;;;;;;;;5075673;28;20037;-67
2021/07/01 13:39:28;;;;;;;13.48;10.00;;;;;;;;;;5075010;28;20049;-68
2021/07/01 13:42:30;;;;;;;11.85;8.95;;;;;;;;;;5074705;28;20038;-66
2021/07/01 13:45:17;;;;;;;12.93;9.20;;;;;;;;;;5074368;28;20043;-66
2021/07/01 13:48:11;;;;;;;10.30;9.25;;;;;;;;;;5073351;28;20051;-66
2021/07/01 13:51:00;;;;;;;13.50;9.80;;;;;;;;;;5072701;28;20482;-67
2021/07/01 13:53:45;;;;;;;10.20;9.15;;;;;;;;;;5054122;28;20072;-66
2021/07/01 13:56:31;;;;;;;10.95;9.07;;;;;;;;;;5057506;28;20055;-66
2021/07/01 13:59:16;;;;;;;13.07;9.35;;;;;;;;;;5075570;28;20051;-66
2021/07/01 14:02:01;;;;;;;14.02;9.32;;;;;;;;;;5073477;28;20048;-68
2021/07/01 14:04:47;;;;;;;11.63;10.35;;;;;;;;;;5075370;28;20094;-66
2021/07/01 14:07:32;;;;;;;13.95;10.55;;;;;;;;;;5074153;28;20047;-67
2021/07/01 14:10:17;;;;;;;14.20;11.05;;;;;;;;;;5074176;28;20194;-66
2021/07/01 14:13:03;;;;;;;18.20;12.30;;;;;;;;;;5074302;28;20049;-66
2021/07/01 14:15:49;;;;;;;17.58;12.93;;;;;;;;;;5074068;28;20572;-66
2021/07/01 14:18:35;;;;;;;17.58;12.05;;;;;;;;;;5060639;28;20140;-66
2021/07/01 14:21:20;;;;;;;18.33;12.68;;;;;;;;;;5064064;28;20518;-66
2021/07/01 14:24:09;;;;;;;18.73;13.10;;;;;;;;;;5061522;28;20062;-66
2021/07/01 14:26:55;;;;;;;16.75;12.27;;;;;;;;;;5066662;28;20047;-66
2021/07/01 14:29:44;;;;;;;18.25;13.10;;;;;;;;;;5063055;28;20525;-66
2021/07/01 14:32:32;;;;;;;19.20;13.48;;;;;;;;;;5064386;28;20048;-67
2021/07/01 14:35:28;;;;;;;20.17;13.57;;;;;;;;;;5064907;28;20110;-66
2021/07/01 14:38:15;;;;;;;19.23;15.25;;;;;;;;;;5059033;28;20071;-66
2021/07/01 14:41:01;;;;;;;21.67;14.73;;;;;;;;;;5062294;28;20048;-67
2021/07/01 14:43:47;;;;;;;23.17;16.45;;;;;;;;;;5070229;28;20100;-67
2021/07/01 14:46:35;;;;;;;19.90;15.43;;;;;;;;;;5067854;28;20414;-65
2021/07/01 14:49:20;;;;;;;19.10;14.35;;;;;;;;;;5072577;28;20043;-68
2021/07/01 14:52:06;;;;;;;17.52;13.93;;;;;;;;;;5069747;28;20052;-65
2021/07/01 14:54:54;;;;;;;19.90;13.32;;;;;;;;;;5071412;28;20115;-65
2021/07/01 14:57:39;;;;;;;19.85;13.68;;;;;;;;;;5071084;28;20040;-65
2021/07/01 15:00:25;;;;;;;16.85;12.90;;;;;;;;;;5071183;28;20055;-65
2021/07/01 15:03:10;;;;;;;18.50;12.25;;;;;;;;;;5071589;28;20037;-65
2021/07/01 15:05:55;;;;;;;16.08;12.10;;;;;;;;;;5071441;28;20063;-65
2021/07/01 15:08:41;;;;;;;20.00;13.43;;;;;;;;;;5067328;28;20115;-66
2021/07/01 15:11:26;;;;;;;17.00;12.45;;;;;;;;;;5054497;28;20072;-67
2021/07/01 15:14:13;;;;;;;17.88;13.15;;;;;;;;;;5072226;28;20441;-65
2021/07/01 15:17:11;;;;;;;21.27;13.45;;;;;;;;;;5071977;28;20051;-65
2021/07/01 15:19:56;;;;;;;18.98;12.70;;;;;;;;;;5071127;28;20055;-65
2021/07/01 15:22:41;;;;;;;14.73;12.20;;;;;;;;;;5071468;28;20059;-67
2021/07/01 15:25:26;;;;;;;16.45;12.90;;;;;;;;;;5065845;28;20055;-65
2021/07/01 15:28:11;;;;;;;18.55;12.38;;;;;;;;;;5071834;28;20062;-65
2021/07/01 15:30:58;;;;;;;17.40;12.57;;;;;;;;;;5071567;28;20127;-66
2021/07/01 15:33:47;;;;;;;17.33;13.85;;;;;;;;;;5071324;28;20102;-65
2021/07/01 15:36:32;;;;;;;16.60;12.48;;;;;;;;;;5070950;28;20052;-65
2021/07/01 15:39:18;;;;;;;18.25;12.50;;;;;;;;;;5062570;28;20048;-64
2021/07/01 15:42:10;;;;;;;16.73;12.93;;;;;;;;;;5051450;28;20047;-66
2021/07/01 15:44:56;;;;;;;;;;;;;;;;;;5051846;28;20077;-67
2021/07/01 15:47:41;;;;;;;15.18;13.07;;;;;;;;;;5059641;28;20021;-65
2021/07/01 15:50:26;;;;;;;17.92;13.93;;;;;;;;;;5068663;28;20051;-67
2021/07/01 15:53:14;;;;;;;22.13;13.93;;;;;;;;;;5069833;28;20130;-71
2021/07/01 15:55:59;;;;;;;25.60;14.85;;;;;;;;;;5071221;28;20190;-70
2021/07/01 15:58:44;;;;;;;27.27;15.63;;;;;;;;;;5050731;28;20052;-72
2021/07/01 16:01:30;;;;;;;21.15;15.23;;;;;;;;;;5050548;28;20103;-72
2021/07/01 16:04:15;;;;;;;20.23;14.45;;;;;;;;;;5070441;28;20071;-71
2021/07/01 16:07:00;;;;;;;19.55;14.55;;;;;;;;;;5069982;28;20056;-73
2021/07/01 16:09:46;;;;;;;25.08;16.90;;;;;;;;;;5065062;28;20058;-72
2021/07/01 16:12:32;;;;;;;20.80;15.25;;;;;;;;;;5070266;28;20066;-72
2021/07/01 16:15:18;;;;;;;23.35;14.50;;;;;;;;;;5069327;28;20040;-72
2021/07/01 16:18:05;;;;;;;23.48;15.15;;;;;;;;;;5070705;28;20421;-72
2021/07/01 16:20:51;;;;;;;20.75;14.48;;;;;;;;;;5069015;28;20044;-72
2021/07/01 16:23:37;;;;;;;22.98;14.95;;;;;;;;;;5050413;28;20053;-74